Time;durP1;ratioP1;P1;durP2;ratioP2;P2;SDS_P1;SDS_P2;PMS_P1;PMS_P2;Temp;Humidity;BMP_temperature;BMP_pressure;BME280_temperature;BME280_humidity;BME280_pressure;Samples;Min_cycle;Max_cycle;Signal;HPM_P1;HPM_P2
2022/04/14 00:02:23;;;;;;;;;;;;;;;;;;5095568;28;19966;-28
2022/04/14 00:04:49;;;;;;;;;;;;;;;;;;5095226;28;19916;-28
2022/04/14 00:07:15;;;;;;;;;;;;;;;;;;5095785;28;19919;-28
2022/04/14 00:09:42;;;;;;;;;;;;;;;;;;5095463;28;19962;-28
2022/04/14 00:12:08;;;;;;;;;;;;;;;;;;5095384;28;19927;-28
2022/04/14 00:14:33;;;;;;;;;;;;;;;;;;5095316;28;19913;-28
2022/04/14 00:16:59;;;;;;;;;;;;;;;;;;5095589;28;19913;-28
2022/04/14 00:19:25;;;;;;;;;;;;;;;;;;5095351;28;19912;-28
2022/04/14 00:21:51;;;;;;;;;;;;;;;;;;5077474;28;20366;-28
2022/04/14 00:24:17;;;;;;;;;;;;;;;;;;5095439;28;20010;-28
2022/04/14 00:26:44;;;;;;;;;;;;;;;;;;5095224;28;19919;-29
2022/04/14 00:29:11;;;;;;;;;;;;;;;;;;5095531;28;19914;-28
2022/04/14 00:31:37;;;;;;;;;;;;;;;;;;5095274;28;20309;-29
2022/04/14 00:34:03;;;;;;;;;;;;;;;;;;5097677;28;19955;-28
2022/04/14 00:36:29;;;;;;;;;;;;;;;;;;5099271;28;19931;-28
2022/04/14 00:38:55;;;;;;;;;;;;;;;;;;5099611;28;20302;-28
2022/04/14 00:41:21;;;;;;;;;;;;;;;;;;5099299;28;20339;-29
2022/04/14 00:43:47;;;;;;;;;;;;;;;;;;5099561;28;19919;-28
2022/04/14 00:46:13;;;;;;;;;;;;;;;;;;5099178;28;20424;-29
2022/04/14 00:48:39;;;;;;;;;;;;;;;;;;5099166;28;19908;-29
2022/04/14 00:51:07;;;;;;;;;;;;;;;;;;5099889;28;19920;-29
2022/04/14 00:53:33;;;;;;;;;;;;;;;;;;5098975;28;19955;-29
2022/04/14 00:55:59;;;;;;;;;;;;;;;;;;5098944;28;19916;-29
2022/04/14 00:58:26;;;;;;;;;;;;;;;;;;5098992;28;19995;-28
2022/04/14 01:00:52;;;;;;;;;;;;;;;;;;5098838;28;19969;-29
2022/04/14 01:03:18;;;;;;;;;;;;;;;;;;5099059;28;19916;-28
2022/04/14 01:05:45;;;;;;;;;;;;;;;;;;5098597;28;19920;-29
2022/04/14 01:08:11;;;;;;;;;;;;;;;;;;5098714;28;19939;-28
2022/04/14 01:10:37;;;;;;;;;;;;;;;;;;5099010;28;19923;-29
2022/04/14 01:13:03;;;;;;;;;;;;;;;;;;5098660;28;20397;-29
2022/04/14 01:15:29;;;;;;;;;;;;;;;;;;5098812;28;19920;-29
2022/04/14 01:17:55;;;;;;;;;;;;;;;;;;5098617;28;19980;-28
2022/04/14 01:20:21;;;;;;;;;;;;;;;;;;5098574;28;19912;-28
2022/04/14 01:22:47;;;;;;;;;;;;;;;;;;5098672;28;19912;-29
2022/04/14 01:25:13;;;;;;;;;;;;;;;;;;5098733;28;20000;-29
2022/04/14 01:27:39;;;;;;;;;;;;;;;;;;5098415;28;19989;-29
2022/04/14 01:30:05;;;;;;;;;;;;;;;;;;5098365;28;20373;-29
2022/04/14 01:32:31;;;;;;;;;;;;;;;;;;5098363;28;19911;-28
2022/04/14 01:34:57;;;;;;;;;;;;;;;;;;5098500;28;20014;-28
2022/04/14 01:37:23;;;;;;;;;;;;;;;;;;5098515;28;20003;-29
2022/04/14 01:39:49;;;;;;;;;;;;;;;;;;5098184;28;19912;-28
2022/04/14 01:42:15;;;;;;;;;;;;;;;;;;5098097;28;19965;-29
2022/04/14 01:44:41;;;;;;;;;;;;;;;;;;5097204;28;19908;-29
2022/04/14 01:47:07;;;;;;;;;;;;;;;;;;5098215;28;19913;-28
2022/04/14 01:49:33;;;;;;;;;;;;;;;;;;5098013;28;20339;-28
2022/04/14 01:51:59;;;;;;;;;;;;;;;;;;5098236;28;19912;-27
2022/04/14 01:54:25;;;;;;;;;;;;;;;;;;5097729;28;19912;-29
2022/04/14 01:56:51;;;;;;;;;;;;;;;;;;5098170;28;19916;-29
2022/04/14 01:59:17;;;;;;;;;;;;;;;;;;5097846;28;20343;-29
2022/04/14 02:01:42;;;;;;;;;;;;;;;;;;5097745;28;19916;-29
2022/04/14 02:04:08;;;;;;;;;;;;;;;;;;5097965;28;19954;-29
2022/04/14 02:06:34;;;;;;;;;;;;;;;;;;5097488;28;19977;-27
2022/04/14 02:09:00;;;;;;;;;;;;;;;;;;5097654;28;19976;-26
2022/04/14 02:11:26;;;;;;;;;;;;;;;;;;5097872;28;19912;-28
2022/04/14 02:13:52;;;;;;;;;;;;;;;;;;5097448;28;19911;-27
2022/04/14 02:16:18;;;;;;;;;;;;;;;;;;5097419;28;19934;-27
2022/04/14 02:18:44;;;;;;;;;;;;;;;;;;5097698;28;20355;-27
2022/04/14 02:21:10;;;;;;;;;;;;;;;;;;5097370;28;19908;-27
2022/04/14 02:23:36;;;;;;;;;;;;;;;;;;5097511;28;20003;-27
2022/04/14 02:26:02;;;;;;;;;;;;;;;;;;5079477;28;19970;-27
2022/04/14 02:28:28;;;;;;;;;;;;;;;;;;5097496;28;19916;-27
2022/04/14 02:30:54;;;;;;;;;;;;;;;;;;5079413;28;19942;-27
2022/04/14 02:33:20;;;;;;;;;;;;;;;;;;5097080;28;19912;-27
2022/04/14 02:35:46;;;;;;;;;;;;;;;;;;5096994;28;19917;-27
2022/04/14 02:38:12;;;;;;;;;;;;;;;;;;5097083;28;19909;-27
2022/04/14 02:40:38;;;;;;;;;;;;;;;;;;5097008;28;19923;-27
2022/04/14 02:43:04;;;;;;;;;;;;;;;;;;5096874;28;19943;-27
2022/04/14 02:45:30;;;;;;;;;;;;;;;;;;5097166;28;19919;-27
2022/04/14 02:47:56;;;;;;;;;;;;;;;;;;5096861;28;19908;-27
2022/04/14 02:50:22;;;;;;;;;;;;;;;;;;5096820;28;19912;-28
2022/04/14 02:52:48;;;;;;;;;;;;;;;;;;5096940;28;19916;-28
2022/04/14 02:55:14;;;;;;;;;;;;;;;;;;5096632;28;19955;-28
2022/04/14 02:57:41;;;;;;;;;;;;;;;;;;5096836;28;19916;-28
2022/04/14 03:00:10;;;;;;;;;;;;;;;;;;5096651;28;20251;-28
2022/04/14 03:02:36;;;;;;;;;;;;;;;;;;5096544;28;19912;-28
2022/04/14 03:05:02;;;;;;;;;;;;;;;;;;5096542;28;19916;-27
2022/04/14 03:07:28;;;;;;;;;;;;;;;;;;5096514;28;20258;-27
2022/04/14 03:09:54;;;;;;;;;;;;;;;;;;5096512;28;19912;-28
2022/04/14 03:12:20;;;;;;;;;;;;;;;;;;5096363;28;19916;-28
2022/04/14 03:14:46;;;;;;;;;;;;;;;;;;5096277;28;19965;-28
2022/04/14 03:17:12;;;;;;;;;;;;;;;;;;5096274;28;19923;-27
2022/04/14 03:19:38;;;;;;;;;;;;;;;;;;5096831;28;19995;-27
2022/04/14 03:22:04;;;;;;;;;;;;;;;;;;5096121;28;19980;-27
2022/04/14 03:24:30;;;;;;;;;;;;;;;;;;5096114;28;19915;-27
2022/04/14 03:26:56;;;;;;;;;;;;;;;;;;5078342;28;19954;-27
2022/04/14 03:29:22;;;;;;;;;;;;;;;;;;5096635;28;19978;-27
2022/04/14 03:31:48;;;;;;;;;;;;;;;;;;5096342;28;19912;-27
2022/04/14 03:34:14;;;;;;;;;;;;;;;;;;5095897;28;20232;-27
2022/04/14 03:36:40;;;;;;;;;;;;;;;;;;5095894;28;19973;-27
2022/04/14 03:39:06;;;;;;;;;;;;;;;;;;5095893;28;19916;-27
2022/04/14 03:41:32;;;;;;;;;;;;;;;;;;5095816;28;19920;-27
2022/04/14 03:43:58;;;;;;;;;;;;;;;;;;5095806;28;19931;-27
2022/04/14 03:46:24;;;;;;;;;;;;;;;;;;5095740;28;19947;-27
2022/04/14 03:48:50;;;;;;;;;;;;;;;;;;5096041;28;20002;-27
2022/04/14 03:51:16;;;;;;;;;;;;;;;;;;5095936;28;19912;-27
2022/04/14 03:53:42;;;;;;;;;;;;;;;;;;5095761;28;20247;-27
2022/04/14 03:56:08;;;;;;;;;;;;;;;;;;5095778;28;19927;-27
2022/04/14 03:58:34;;;;;;;;;;;;;;;;;;5095547;28;20365;-27
2022/04/14 04:01:00;;;;;;;;;;;;;;;;;;5095744;28;20254;-27
2022/04/14 04:03:26;;;;;;;;;;;;;;;;;;5095363;28;19923;-27
2022/04/14 04:05:52;;;;;;;;;;;;;;;;;;5095308;28;19920;-27
2022/04/14 04:08:18;;;;;;;;;;;;;;;;;;5094719;28;19916;-27
2022/04/14 04:10:44;;;;;;;;;;;;;;;;;;5095128;28;19912;-28
2022/04/14 04:13:10;;;;;;;;;;;;;;;;;;5095014;28;19912;-28
2022/04/14 04:15:36;;;;;;;;;;;;;;;;;;5095059;28;19969;-28
2022/04/14 04:18:04;;;;;;;;;;;;;;;;;;5095147;28;20395;-28
2022/04/14 04:20:30;;;;;;;;;;;;;;;;;;5095095;28;19912;-28
2022/04/14 04:22:56;;;;;;;;;;;;;;;;;;5095353;28;19912;-28
2022/04/14 04:25:22;;;;;;;;;;;;;;;;;;5095072;28;19999;-28
2022/04/14 04:27:48;;;;;;;;;;;;;;;;;;5095129;28;19916;-28
2022/04/14 04:30:14;;;;;;;;;;;;;;;;;;5095332;28;19912;-27
2022/04/14 04:32:40;;;;;;;;;;;;;;;;;;5095003;28;20330;-27
2022/04/14 04:35:06;;;;;;;;;;;;;;;;;;5095268;28;19920;-28
2022/04/14 04:37:32;;;;;;;;;;;;;;;;;;5095065;28;19943;-28
2022/04/14 04:39:58;;;;;;;;;;;;;;;;;;5094997;28;19924;-27
2022/04/14 04:42:24;;;;;;;;;;;;;;;;;;5094948;28;20368;-27
2022/04/14 04:44:50;;;;;;;;;;;;;;;;;;5094792;28;19913;-28
2022/04/14 04:47:16;;;;;;;;;;;;;;;;;;5095224;28;19912;-28
2022/04/14 04:49:42;;;;;;;;;;;;;;;;;;5094929;28;19912;-28
2022/04/14 04:52:08;;;;;;;;;;;;;;;;;;5094906;28;20011;-28
2022/04/14 04:54:34;;;;;;;;;;;;;;;;;;5094789;28;19998;-28
2022/04/14 04:57:00;;;;;;;;;;;;;;;;;;5094820;28;20317;-28
2022/04/14 04:59:26;;;;;;;;;;;;;;;;;;5094720;28;19912;-28
2022/04/14 05:01:52;;;;;;;;;;;;;;;;;;5094825;28;19908;-28
2022/04/14 05:04:18;;;;;;;;;;;;;;;;;;5094672;28;20343;-28
2022/04/14 05:06:44;;;;;;;;;;;;;;;;;;5094568;28;19925;-28
2022/04/14 05:09:10;;;;;;;;;;;;;;;;;;5095037;28;19912;-28
2022/04/14 05:11:36;;;;;;;;;;;;;;;;;;5095011;28;19908;-28
2022/04/14 05:14:02;;;;;;;;;;;;;;;;;;5094581;28;19912;-28
2022/04/14 05:16:28;;;;;;;;;;;;;;;;;;5094667;28;19920;-28
2022/04/14 05:18:54;;;;;;;;;;;;;;;;;;5094759;28;19908;-28
2022/04/14 05:21:20;;;;;;;;;;;;;;;;;;5097357;28;19912;-28
2022/04/14 05:23:46;;;;;;;;;;;;;;;;;;5098265;28;19908;-27
2022/04/14 05:26:12;;;;;;;;;;;;;;;;;;5098310;28;19912;-27
2022/04/14 05:28:37;;;;;;;;;;;;;;;;;;5098504;28;20250;-27
2022/04/14 05:31:04;;;;;;;;;;;;;;;;;;5098244;28;20310;-27
2022/04/14 05:33:29;;;;;;;;;;;;;;;;;;5098044;28;19912;-27
2022/04/14 05:35:55;;;;;;;;;;;;;;;;;;5098303;28;20015;-27
2022/04/14 05:38:21;;;;;;;;;;;;;;;;;;5098409;28;19908;-27
2022/04/14 05:40:47;;;;;;;;;;;;;;;;;;5097950;28;20501;-28
2022/04/14 05:43:14;;;;;;;;;;;;;;;;;;5098079;28;19915;-29
2022/04/14 05:45:40;;;;;;;;;;;;;;;;;;5080147;28;19923;-28
2022/04/14 05:48:07;;;;;;;;;;;;;;;;;;5097884;28;20355;-28
2022/04/14 05:50:33;;;;;;;;;;;;;;;;;;5097839;28;20283;-28
2022/04/14 05:52:59;;;;;;;;;;;;;;;;;;5097951;28;19997;-28
2022/04/14 05:55:25;;;;;;;;;;;;;;;;;;5097690;28;19942;-28
2022/04/14 05:57:51;;;;;;;;;;;;;;;;;;5097692;28;19908;-28
2022/04/14 06:03:16;;;;;;;;;;;;;;;;;;5451056;22;20006;-25
2022/04/14 06:05:42;;;;;;;;;;;;;;;;;;5077218;28;20346;-25
2022/04/14 06:08:08;;;;;;;;;;;;;;;;;;5077278;28;19920;-26
2022/04/14 06:10:35;;;;;;;;;;;;;;;;;;5076150;28;19996;-26
2022/04/14 06:13:01;;;;;;;;;;;;;;;;;;5077171;28;19916;-26
2022/04/14 06:15:27;;;;;;;;;;;;;;;;;;5076926;28;19962;-26
2022/04/14 06:17:53;;;;;;;;;;;;;;;;;;5077074;28;19917;-26
2022/04/14 06:20:19;;;;;;;;;;;;;;;;;;5077080;28;20350;-26
2022/04/14 06:22:45;;;;;;;;;;;;;;;;;;5077089;28;19909;-26
2022/04/14 06:25:16;;;;;;;;;;;;;;;;;;5059386;28;19939;-26
2022/04/14 06:27:42;;;;;;;;;;;;;;;;;;5076908;28;19919;-26
2022/04/14 06:30:09;;;;;;;;;;;;;;;;;;5077418;28;19913;-26
2022/04/14 06:32:35;;;;;;;;;;;;;;;;;;5076338;28;19912;-26
2022/04/14 06:35:01;;;;;;;;;;;;;;;;;;5076689;28;20019;-26
2022/04/14 06:37:27;;;;;;;;;;;;;;;;;;5059009;28;19956;-26
2022/04/14 06:39:53;;;;;;;;;;;;;;;;;;5076549;28;19912;-26
2022/04/14 06:42:19;;;;;;;;;;;;;;;;;;5076570;28;19915;-26
2022/04/14 06:44:45;;;;;;;;;;;;;;;;;;5076535;28;19966;-26
2022/04/14 06:47:11;;;;;;;;;;;;;;;;;;5076892;28;19970;-26
2022/04/14 06:49:37;;;;;;;;;;;;;;;;;;5076247;28;20068;-26
2022/04/14 06:52:03;;;;;;;;;;;;;;;;;;5058506;28;19909;-26
2022/04/14 06:54:29;;;;;;;;;;;;;;;;;;5076170;28;19948;-26
2022/04/14 06:56:55;;;;;;;;;;;;;;;;;;5076804;28;19923;-26
2022/04/14 06:59:21;;;;;;;;;;;;;;;;;;5076480;28;19924;-26
2022/04/14 07:01:47;;;;;;;;;;;;;;;;;;5075946;28;19916;-26
2022/04/14 07:04:13;;;;;;;;;;;;;;;;;;5075942;28;20421;-26
2022/04/14 07:06:39;;;;;;;;;;;;;;;;;;5076676;28;19913;-26
2022/04/14 07:09:05;;;;;;;;;;;;;;;;;;5075880;28;20008;-26
2022/04/14 07:11:31;;;;;;;;;;;;;;;;;;5075925;28;19939;-26
2022/04/14 07:13:59;;;;;;;;;;;;;;;;;;5075749;28;19913;-26
2022/04/14 07:16:26;;;;;;;;;;;;;;;;;;5075609;28;20006;-26
2022/04/14 07:18:52;;;;;;;;;;;;;;;;;;5075982;28;19923;-26
2022/04/14 07:21:18;;;;;;;;;;;;;;;;;;5076154;28;19913;-26
2022/04/14 07:23:44;;;;;;;;;;;;;;;;;;5057950;28;20239;-26
2022/04/14 07:26:10;;;;;;;;;;;;;;;;;;5075634;28;20370;-26
2022/04/14 07:28:36;;;;;;;;;;;;;;;;;;5057997;28;19912;-26
2022/04/14 07:31:02;;;;;;;;;;;;;;;;;;5075868;28;19924;-26
2022/04/14 07:33:28;;;;;;;;;;;;;;;;;;5075609;28;19909;-26
2022/04/14 07:35:54;;;;;;;;;;;;;;;;;;5075680;28;19916;-26
2022/04/14 07:38:20;;;;;;;;;;;;;;;;;;5075401;28;20270;-26
2022/04/14 07:40:46;;;;;;;;;;;;;;;;;;5075706;28;20351;-27
2022/04/14 07:43:12;;;;;;;;;;;;;;;;;;5074513;28;19996;-26
2022/04/14 07:45:38;;;;;;;;;;;;;;;;;;5075431;28;20224;-26
2022/04/14 07:48:04;;;;;;;;;;;;;;;;;;5075208;28;19909;-26
2022/04/14 07:50:31;;;;;;;;;;;;;;;;;;5075003;28;19912;-26
2022/04/14 07:52:57;;;;;;;;;;;;;;;;;;5074912;28;19908;-26
2022/04/14 07:55:23;;;;;;;;;;;;;;;;;;5075698;28;19916;-27
2022/04/14 07:57:49;;;;;;;;;;;;;;;;;;5057448;28;20015;-26
2022/04/14 08:00:15;;;;;;;;;;;;;;;;;;5075575;28;19913;-26
2022/04/14 08:02:41;;;;;;;;;;;;;;;;;;5074591;28;19925;-26
2022/04/14 08:05:07;;;;;;;;;;;;;;;;;;5074971;28;19913;-26
2022/04/14 08:07:33;;;;;;;;;;;;;;;;;;5074994;28;20449;-26
2022/04/14 08:10:00;;;;;;;;;;;;;;;;;;5075537;28;20254;-25
2022/04/14 08:12:26;;;;;;;;;;;;;;;;;;5074910;28;19908;-26
2022/04/14 08:14:52;;;;;;;;;;;;;;;;;;5075219;28;20250;-25
2022/04/14 08:17:18;;;;;;;;;;;;;;;;;;5075247;28;19913;-25
2022/04/14 08:19:44;;;;;;;;;;;;;;;;;;5075280;28;20254;-26
2022/04/14 08:22:10;;;;;;;;;;;;;;;;;;5074772;28;20358;-26
2022/04/14 08:24:36;;;;;;;;;;;;;;;;;;5075134;28;19915;-26
2022/04/14 08:27:02;;;;;;;;;;;;;;;;;;5074895;28;19939;-26
2022/04/14 08:29:29;;;;;;;;;;;;;;;;;;5074735;28;20203;-26
2022/04/14 08:31:55;;;;;;;;;;;;;;;;;;5074841;28;19913;-26
2022/04/14 08:34:21;;;;;;;;;;;;;;;;;;5074886;28;19921;-26
2022/04/14 08:36:47;;;;;;;;;;;;;;;;;;5056988;28;19959;-26
2022/04/14 08:39:15;;;;;;;;;;;;;;;;;;5074831;28;19908;-26
2022/04/14 08:41:41;;;;;;;;;;;;;;;;;;5075366;28;19916;-26
2022/04/14 08:44:07;;;;;;;;;;;;;;;;;;5074803;28;19977;-26
2022/04/14 08:46:33;;;;;;;;;;;;;;;;;;5074671;28;20231;-26
2022/04/14 08:49:02;;;;;;;;;;;;;;;;;;5074949;28;19962;-26
2022/04/14 08:51:28;;;;;;;;;;;;;;;;;;5074923;28;19917;-26
2022/04/14 08:53:54;;;;;;;;;;;;;;;;;;5057231;28;20099;-26
2022/04/14 08:56:20;;;;;;;;;;;;;;;;;;5078530;28;20028;-26
2022/04/14 08:58:46;;;;;;;;;;;;;;;;;;5078616;28;19967;-26
2022/04/14 09:01:13;;;;;;;;;;;;;;;;;;5078991;28;19912;-26
2022/04/14 09:03:39;;;;;;;;;;;;;;;;;;5078237;28;19920;-26
2022/04/14 09:06:05;;;;;;;;;;;;;;;;;;5060812;28;19956;-26
2022/04/14 09:08:31;;;;;;;;;;;;;;;;;;5078327;28;19912;-26
2022/04/14 09:10:57;;;;;;;;;;;;;;;;;;5078805;28;19999;-26
2022/04/14 09:13:23;;;;;;;;;;;;;;;;;;5060640;28;19912;-26
2022/04/14 09:15:49;;;;;;;;;;;;;;;;;;5078422;28;20417;-26
2022/04/14 09:18:16;;;;;;;;;;;;;;;;;;5060572;28;19991;-27
2022/04/14 09:20:43;;;;;;;;;;;;;;;;;;5078672;28;19920;-26
2022/04/14 09:23:09;;;;;;;;;;;;;;;;;;5078103;28;19931;-26
2022/04/14 09:25:35;;;;;;;;;;;;;;;;;;5077919;28;19949;-26
2022/04/14 09:28:01;;;;;;;;;;;;;;;;;;5078434;28;19916;-25
2022/04/14 09:30:27;;;;;;;;;;;;;;;;;;5077943;28;19961;-26
2022/04/14 09:32:55;;;;;;;;;;;;;;;;;;5077990;28;20254;-26
2022/04/14 09:35:21;;;;;;;;;;;;;;;;;;5077693;28;19959;-26
2022/04/14 09:37:47;;;;;;;;;;;;;;;;;;5060080;28;19974;-26
2022/04/14 09:40:13;;;;;;;;;;;;;;;;;;5077928;28;19913;-26
2022/04/14 09:42:39;;;;;;;;;;;;;;;;;;5078034;28;19913;-26
2022/04/14 09:45:05;;;;;;;;;;;;;;;;;;5077588;28;19952;-26
2022/04/14 09:47:31;;;;;;;;;;;;;;;;;;5077854;28;20338;-26
2022/04/14 09:49:57;;;;;;;;;;;;;;;;;;5077939;28;19913;-26
2022/04/14 09:52:23;;;;;;;;;;;;;;;;;;5077720;28;19969;-26
2022/04/14 09:54:50;;;;;;;;;;;;;;;;;;5077897;28;20335;-26
2022/04/14 09:57:18;;;;;;;;;;;;;;;;;;5077288;28;20350;-26
2022/04/14 09:59:44;;;;;;;;;;;;;;;;;;5077290;28;19916;-26
2022/04/14 10:02:10;;;;;;;;;;;;;;;;;;5077050;28;19920;-26
2022/04/14 10:04:36;;;;;;;;;;;;;;;;;;5077300;28;19913;-26
2022/04/14 10:07:02;;;;;;;;;;;;;;;;;;5076297;28;19912;-26
2022/04/14 10:09:30;;;;;;;;;;;;;;;;;;5059384;28;19908;-26
2022/04/14 10:11:56;;;;;;;;;;;;;;;;;;5077001;28;19912;-26
2022/04/14 10:14:24;;;;;;;;;;;;;;;;;;5077203;28;19909;-26
2022/04/14 10:16:50;;;;;;;;;;;;;;;;;;5077075;28;20347;-26
2022/04/14 10:19:16;;;;;;;;;;;;;;;;;;5077269;28;19923;-26
2022/04/14 10:21:43;;;;;;;;;;;;;;;;;;5077207;28;19912;-26
2022/04/14 10:24:09;;;;;;;;;;;;;;;;;;5076955;28;19908;-26
2022/04/14 10:26:35;;;;;;;;;;;;;;;;;;5076681;28;19912;-26
2022/04/14 10:29:03;;;;;;;;;;;;;;;;;;5076693;28;19912;-26
2022/04/14 10:31:29;;;;;;;;;;;;;;;;;;5076748;28;19912;-26
2022/04/14 10:33:55;;;;;;;;;;;;;;;;;;5076722;28;19909;-26
2022/04/14 10:36:21;;;;;;;;;;;;;;;;;;5076505;28;19924;-26
2022/04/14 10:38:47;;;;;;;;;;;;;;;;;;5076635;28;20001;-26
2022/04/14 10:41:14;;;;;;;;;;;;;;;;;;5076799;28;19913;-26
2022/04/14 10:43:40;;;;;;;;;;;;;;;;;;5076354;28;20331;-26
2022/04/14 10:46:06;;;;;;;;;;;;;;;;;;5076914;28;20355;-26
2022/04/14 10:48:32;;;;;;;;;;;;;;;;;;5076693;28;19978;-26
2022/04/14 10:50:58;;;;;;;;;;;;;;;;;;5076568;28;19991;-26
2022/04/14 10:53:24;;;;;;;;;;;;;;;;;;5076181;28;19963;-26
2022/04/14 10:55:53;;;;;;;;;;;;;;;;;;5076561;28;19952;-26
2022/04/14 10:58:19;;;;;;;;;;;;;;;;;;5076196;28;19973;-26
2022/04/14 11:00:45;;;;;;;;;;;;;;;;;;5076034;28;19954;-26
2022/04/14 11:03:11;;;;;;;;;;;;;;;;;;5055092;28;19996;-26
2022/04/14 11:05:37;;;;;;;;;;;;;;;;;;5055976;28;19913;-26
2022/04/14 11:08:03;;;;;;;;;;;;;;;;;;5055993;28;19909;-26
2022/04/14 11:10:29;;;;;;;;;;;;;;;;;;5054933;28;20351;-27
2022/04/14 11:12:55;;;;;;;;;;;;;;;;;;5056383;28;19923;-26
2022/04/14 11:15:21;;;;;;;;;;;;;;;;;;5054773;28;20267;-26
2022/04/14 11:17:48;;;;;;;;;;;;;;;;;;5055240;28;19909;-26
2022/04/14 11:20:14;;;;;;;;;;;;;;;;;;5054732;28;20267;-27
2022/04/14 11:22:40;;;;;;;;;;;;;;;;;;5055589;28;19913;-26
2022/04/14 11:25:06;;;;;;;;;;;;;;;;;;5055956;28;19955;-26
2022/04/14 11:27:32;;;;;;;;;;;;;;;;;;5054631;28;19985;-26
2022/04/14 11:29:58;;;;;;;;;;;;;;;;;;5056177;28;19916;-26
2022/04/14 11:32:24;;;;;;;;;;;;;;;;;;5055453;28;19984;-26
2022/04/14 11:34:50;;;;;;;;;;;;;;;;;;5055231;28;20351;-26
2022/04/14 11:37:16;;;;;;;;;;;;;;;;;;5055912;28;19913;-26
2022/04/14 11:39:42;;;;;;;;;;;;;;;;;;5055450;28;20263;-26
2022/04/14 11:42:08;;;;;;;;;;;;;;;;;;5055327;28;19912;-26
2022/04/14 11:44:35;;;;;;;;;;;;;;;;;;5055639;28;19913;-26
2022/04/14 11:47:01;;;;;;;;;;;;;;;;;;5055549;28;20270;-26
2022/04/14 11:49:27;;;;;;;;;;;;;;;;;;5054303;28;20382;-26
2022/04/14 11:51:53;;;;;;;;;;;;;;;;;;5055450;28;20290;-26
2022/04/14 11:54:19;;;;;;;;;;;;;;;;;;5055198;28;19913;-26
2022/04/14 11:56:45;;;;;;;;;;;;;;;;;;5055381;28;19971;-26
2022/04/14 11:59:11;;;;;;;;;;;;;;;;;;5055524;28;19913;-25
2022/04/14 12:01:37;;;;;;;;;;;;;;;;;;5055477;28;20011;-26
2022/04/14 12:04:03;;;;;;;;;;;;;;;;;;5071543;28;19977;-26
2022/04/14 12:06:29;;;;;;;;;;;;;;;;;;5075180;28;20335;-26
2022/04/14 12:08:55;;;;;;;;;;;;;;;;;;5075092;28;19908;-26
2022/04/14 12:11:21;;;;;;;;;;;;;;;;;;5075369;28;19917;-26
2022/04/14 12:13:48;;;;;;;;;;;;;;;;;;5074848;28;19908;-26
2022/04/14 12:16:14;;;;;;;;;;;;;;;;;;5074804;28;20023;-25
2022/04/14 12:18:40;;;;;;;;;;;;;;;;;;5075200;28;19935;-25
2022/04/14 12:21:06;;;;;;;;;;;;;;;;;;5075080;28;20050;-24
2022/04/14 12:23:33;;;;;;;;;;;;;;;;;;5057026;28;19908;-31
2022/04/14 12:25:59;;;;;;;;;;;;;;;;;;5074836;28;19966;-26
2022/04/14 12:28:25;;;;;;;;;;;;;;;;;;5074766;28;20318;-26
2022/04/14 12:30:51;;;;;;;;;;;;;;;;;;5074340;28;20316;-26
2022/04/14 12:33:17;;;;;;;;;;;;;;;;;;5056887;28;20003;-26
2022/04/14 12:35:43;;;;;;;;;;;;;;;;;;5074586;28;19977;-26
2022/04/14 12:38:09;;;;;;;;;;;;;;;;;;5074552;28;19913;-26
2022/04/14 12:40:35;;;;;;;;;;;;;;;;;;5075217;28;19919;-26
2022/04/14 12:43:01;;;;;;;;;;;;;;;;;;5074572;28;20007;-27
2022/04/14 12:45:27;;;;;;;;;;;;;;;;;;5056903;28;20017;-27
2022/04/14 12:47:53;;;;;;;;;;;;;;;;;;5074489;28;19912;-32
2022/04/14 12:50:19;;;;;;;;;;;;;;;;;;5074499;28;19966;-26
2022/04/14 12:52:46;;;;;;;;;;;;;;;;;;5074398;28;19981;-27
2022/04/14 12:55:12;;;;;;;;;;;;;;;;;;5074366;28;19964;-27
2022/04/14 12:57:38;;;;;;;;;;;;;;;;;;5074283;28;19909;-27
2022/04/14 13:00:05;;;;;;;;;;;;;;;;;;5074102;28;20006;-27
2022/04/14 13:02:31;;;;;;;;;;;;;;;;;;5074309;28;19916;-27
2022/04/14 13:04:57;;;;;;;;;;;;;;;;;;5074837;28;19923;-27
2022/04/14 13:07:23;;;;;;;;;;;;;;;;;;5074469;28;19991;-27
2022/04/14 13:09:49;;;;;;;;;;;;;;;;;;5056471;28;19923;-26
2022/04/14 13:12:15;;;;;;;;;;;;;;;;;;5074383;28;19912;-27
2022/04/14 13:14:41;;;;;;;;;;;;;;;;;;5074697;28;20366;-26
2022/04/14 13:17:07;;;;;;;;;;;;;;;;;;5074028;28;20067;-24
2022/04/14 13:19:34;;;;;;;;;;;;;;;;;;5056610;28;20003;-25
2022/04/14 13:22:00;;;;;;;;;;;;;;;;;;5074505;28;19924;-25
2022/04/14 13:24:28;;;;;;;;;;;;;;;;;;5074291;28;20260;-26
2022/04/14 13:26:54;;;;;;;;;;;;;;;;;;5056502;28;20066;-26
2022/04/14 13:29:21;;;;;;;;;;;;;;;;;;5074183;28;19923;-26
2022/04/14 13:31:47;;;;;;;;;;;;;;;;;;5056508;28;19912;-25
2022/04/14 13:34:13;;;;;;;;;;;;;;;;;;5074656;28;19915;-25
2022/04/14 13:36:39;;;;;;;;;;;;;;;;;;5074039;28;19917;-26
2022/04/14 13:39:05;;;;;;;;;;;;;;;;;;5056552;28;19909;-26
2022/04/14 13:41:31;;;;;;;;;;;;;;;;;;5075162;28;20354;-26
2022/04/14 13:43:57;;;;;;;;;;;;;;;;;;5077945;28;19916;-26
2022/04/14 13:46:23;;;;;;;;;;;;;;;;;;5077580;28;20258;-26
2022/04/14 13:48:49;;;;;;;;;;;;;;;;;;5077650;28;19908;-26
2022/04/14 13:51:15;;;;;;;;;;;;;;;;;;5078015;28;19912;-26
2022/04/14 13:53:41;;;;;;;;;;;;;;;;;;5077567;28;19935;-26
2022/04/14 13:56:07;;;;;;;;;;;;;;;;;;5077402;28;19916;-26
2022/04/14 13:58:34;;;;;;;;;;;;;;;;;;5077258;28;19915;-26
2022/04/14 14:01:01;;;;;;;;;;;;;;;;;;5077173;28;19952;-26
2022/04/14 14:03:29;;;;;;;;;;;;;;;;;;5076997;28;19921;-26
2022/04/14 14:05:55;;;;;;;;;;;;;;;;;;5077506;28;19944;-26
2022/04/14 14:08:21;;;;;;;;;;;;;;;;;;5077108;28;19920;-26
2022/04/14 14:10:47;;;;;;;;;;;;;;;;;;5059448;28;20344;-26
2022/04/14 14:13:13;;;;;;;;;;;;;;;;;;5077270;28;19966;-25
2022/04/14 14:15:39;;;;;;;;;;;;;;;;;;5077588;28;19966;-26
2022/04/14 14:18:06;;;;;;;;;;;;;;;;;;5076873;28;19913;-26
2022/04/14 14:20:33;;;;;;;;;;;;;;;;;;5076790;28;19916;-26
2022/04/14 14:22:59;;;;;;;;;;;;;;;;;;5077066;28;19955;-26
2022/04/14 14:25:24;;;;;;;;;;;;;;;;;;5077023;28;20406;-26
2022/04/14 14:27:50;;;;;;;;;;;;;;;;;;5076797;28;20003;-26
2022/04/14 14:30:16;;;;;;;;;;;;;;;;;;5076828;28;19942;-26
2022/04/14 14:32:42;;;;;;;;;;;;;;;;;;5076858;28;19916;-26
2022/04/14 14:35:13;;;;;;;;;;;;;;;;;;5076614;28;19999;-26
2022/04/14 14:37:39;;;;;;;;;;;;;;;;;;5059877;28;20239;-25
2022/04/14 14:40:07;;;;;;;;;;;;;;;;;;5076856;28;19916;-26
2022/04/14 14:42:33;;;;;;;;;;;;;;;;;;5076506;28;20335;-25
2022/04/14 14:44:59;;;;;;;;;;;;;;;;;;5076955;28;20290;-26
2022/04/14 14:47:25;;;;;;;;;;;;;;;;;;5076309;28;19966;-25
2022/04/14 14:49:50;;;;;;;;;;;;;;;;;;5076286;28;19966;-26
2022/04/14 14:52:16;;;;;;;;;;;;;;;;;;5076274;28;19916;-25
2022/04/14 14:54:42;;;;;;;;;;;;;;;;;;5076449;28;19919;-26
2022/04/14 14:57:08;;;;;;;;;;;;;;;;;;5076118;28;19913;-27
2022/04/14 14:59:34;;;;;;;;;;;;;;;;;;5076743;28;19969;-27
2022/04/14 15:02:00;;;;;;;;;;;;;;;;;;5075996;28;19923;-26
2022/04/14 15:04:26;;;;;;;;;;;;;;;;;;5075846;28;19920;-26
2022/04/14 15:06:52;;;;;;;;;;;;;;;;;;5058283;28;19912;-26
2022/04/14 15:09:18;;;;;;;;;;;;;;;;;;5076285;28;19909;-26
2022/04/14 15:11:46;;;;;;;;;;;;;;;;;;5076197;28;20372;-26
2022/04/14 15:14:12;;;;;;;;;;;;;;;;;;5075873;28;19908;-26
2022/04/14 15:16:38;;;;;;;;;;;;;;;;;;5075861;28;19923;-26
2022/04/14 15:19:06;;;;;;;;;;;;;;;;;;5075925;28;19909;-26
2022/04/14 15:21:32;;;;;;;;;;;;;;;;;;5075805;28;19916;-26
2022/04/14 15:23:58;;;;;;;;;;;;;;;;;;5075743;28;20012;-26
2022/04/14 15:26:24;;;;;;;;;;;;;;;;;;5075923;28;19919;-26
2022/04/14 15:28:50;;;;;;;;;;;;;;;;;;5076260;28;20007;-26
2022/04/14 15:31:16;;;;;;;;;;;;;;;;;;5075637;28;19948;-26
2022/04/14 15:33:42;;;;;;;;;;;;;;;;;;5075863;28;19951;-26
2022/04/14 15:36:08;;;;;;;;;;;;;;;;;;5075763;28;19916;-26
2022/04/14 15:38:38;;;;;;;;;;;;;;;;;;5075536;28;19909;-26
2022/04/14 15:41:04;;;;;;;;;;;;;;;;;;5075251;28;19916;-26
2022/04/14 15:43:31;;;;;;;;;;;;;;;;;;5075083;28;19915;-26
2022/04/14 15:45:57;;;;;;;;;;;;;;;;;;5075460;28;19999;-26
2022/04/14 15:48:23;;;;;;;;;;;;;;;;;;5057498;28;20370;-26
2022/04/14 15:50:49;;;;;;;;;;;;;;;;;;5075371;28;19920;-26
2022/04/14 15:53:15;;;;;;;;;;;;;;;;;;5075470;28;19908;-26
2022/04/14 15:55:41;;;;;;;;;;;;;;;;;;5075022;28;20280;-26
2022/04/14 15:58:07;;;;;;;;;;;;;;;;;;5057443;28;19958;-26
2022/04/14 16:00:34;;;;;;;;;;;;;;;;;;5075559;28;19913;-27
2022/04/14 16:03:00;;;;;;;;;;;;;;;;;;5074698;28;19948;-26
2022/04/14 16:05:26;;;;;;;;;;;;;;;;;;5074350;28;19923;-26
2022/04/14 16:07:52;;;;;;;;;;;;;;;;;;5057192;28;19912;-26
2022/04/14 16:13:02;;;;;;;;;;;;;;;;;;5075202;28;19959;-26
2022/04/14 16:15:28;;;;;;;;;;;;;;;;;;5074826;28;19943;-25
2022/04/14 16:17:55;;;;;;;;;;;;;;;;;;5074877;28;19909;-25
2022/04/14 16:20:21;;;;;;;;;;;;;;;;;;5074732;28;20347;-26
2022/04/14 16:22:47;;;;;;;;;;;;;;;;;;5074798;28;19908;-26
2022/04/14 16:25:12;;;;;;;;;;;;;;;;;;5075296;28;19966;-26
2022/04/14 16:27:39;;;;;;;;;;;;;;;;;;5057092;28;19909;-26
2022/04/14 16:30:05;;;;;;;;;;;;;;;;;;5075123;28;20406;-26
2022/04/14 16:32:31;;;;;;;;;;;;;;;;;;5056938;28;20010;-25
2022/04/14 16:34:57;;;;;;;;;;;;;;;;;;5074828;28;20223;-26
2022/04/14 16:37:23;;;;;;;;;;;;;;;;;;5074902;28;19915;-25
2022/04/14 16:39:49;;;;;;;;;;;;;;;;;;5074565;28;19917;-26
2022/04/14 16:42:15;;;;;;;;;;;;;;;;;;5074576;28;20256;-26
2022/04/14 16:44:41;;;;;;;;;;;;;;;;;;5074671;28;19967;-26